Time;durP1;ratioP1;P1;durP2;ratioP2;P2;SDS_P1;SDS_P2;PMS_P1;PMS_P2;Temp;Humidity;BMP_temperature;BMP_pressure;BME280_temperature;BME280_humidity;BME280_pressure;Samples;Min_cycle;Max_cycle;Signal;HPM_P1;HPM_P2
2023/10/04 00:01:16;;;;;;;13.25;6.55;;;13.80;92.00;;;;;;5016232;28;20140;-83
2023/10/04 00:03:43;;;;;;;11.70;6.43;;;13.80;92.20;;;;;;5034353;28;20126;-84
2023/10/04 00:06:12;;;;;;;7.93;5.93;;;13.80;92.20;;;;;;5016728;28;20064;-84
2023/10/04 00:08:38;;;;;;;10.45;6.90;;;13.80;92.30;;;;;;5034378;28;20550;-84
2023/10/04 00:11:04;;;;;;;8.90;6.38;;;13.70;92.50;;;;;;5039136;28;20040;-83
2023/10/04 00:13:33;;;;;;;10.20;6.47;;;13.70;92.60;;;;;;5048740;28;20072;-82
2023/10/04 00:15:59;;;;;;;11.50;6.13;;;13.70;92.70;;;;;;5054103;28;20017;-84
2023/10/04 00:18:25;;;;;;;10.45;6.43;;;13.70;92.70;;;;;;5041452;28;20029;-83
2023/10/04 00:20:51;;;;;;;11.07;6.50;;;13.60;93.00;;;;;;5034068;28;20033;-84
2023/10/04 00:23:18;;;;;;;11.18;6.80;;;13.60;93.00;;;;;;5034562;28;20025;-83
2023/10/04 00:25:44;;;;;;;;;;;13.50;93.10;;;;;;5033481;28;20383;-83
2023/10/04 00:28:10;;;;;;;9.95;6.72;;;13.50;92.90;;;;;;5016199;28;20026;-83
2023/10/04 00:30:35;;;;;;;14.00;7.43;;;13.50;93.30;;;;;;5033501;28;20025;-82
2023/10/04 00:33:04;;;;;;;11.65;6.88;;;13.50;93.50;;;;;;5015932;28;20641;-83
2023/10/04 00:35:30;;;;;;;13.98;6.85;;;13.50;93.60;;;;;;5031233;28;20463;-83
2023/10/04 00:37:57;;;;;;;10.23;6.32;;;13.50;93.70;;;;;;5035674;28;20017;-82
2023/10/04 00:40:31;;;;;;;11.43;6.63;;;13.50;93.70;;;;;;5052339;28;20032;-83
2023/10/04 00:43:01;;;;;;;11.80;6.38;;;13.50;93.70;;;;;;5039934;28;20367;-83
2023/10/04 00:45:28;;;;;;;14.70;7.18;;;13.50;93.80;;;;;;5053444;28;20029;-82
2023/10/04 00:47:58;;;;;;;12.02;6.30;;;13.50;93.90;;;;;;5053518;28;20540;-82
2023/10/04 00:50:26;;;;;;;13.15;6.75;;;13.50;93.90;;;;;;5053973;28;20036;-83
2023/10/04 00:53:02;;;;;;;14.50;7.25;;;13.50;94.30;;;;;;5037298;28;20366;-82
2023/10/04 00:55:29;;;;;;;14.52;7.20;;;13.50;94.00;;;;;;5053665;28;20094;-83
2023/10/04 00:57:56;;;;;;;9.90;7.20;;;13.40;94.10;;;;;;5054231;28;20079;-84
2023/10/04 01:00:25;;;;;;;;;;;13.40;94.20;;;;;;5036505;28;20091;-82
2023/10/04 01:02:52;;;;;;;14.23;7.55;;;13.40;94.00;;;;;;5059206;28;19999;-84
2023/10/04 01:05:22;;;;;;;13.63;6.97;;;13.40;94.30;;;;;;5065459;28;20021;-83
2023/10/04 01:07:49;;;;;;;11.48;8.00;;;13.40;94.40;;;;;;5049495;28;20021;-84
2023/10/04 01:10:20;;;;;;;14.98;7.20;;;13.40;94.40;;;;;;5063956;28;20450;-84
2023/10/04 01:12:49;;;;;;;12.57;6.97;;;13.30;94.40;;;;;;5034633;28;20075;-82
2023/10/04 01:15:31;;;;;;;20.17;6.75;;;13.30;94.60;;;;;;5052650;28;20056;-84
2023/10/04 01:18:05;;;;;;;11.15;6.72;;;13.40;94.70;;;;;;5034876;28;20083;-83
2023/10/04 01:20:31;;;;;;;11.80;7.60;;;13.30;94.70;;;;;;5052902;28;20043;-83
2023/10/04 01:23:09;;;;;;;11.13;7.68;;;13.40;94.70;;;;;;5038237;28;20115;-83
2023/10/04 01:25:37;;;;;;;15.95;7.00;;;13.40;94.80;;;;;;5056573;28;20470;-84
2023/10/04 01:28:12;;;;;;;15.43;7.97;;;13.30;94.70;;;;;;5052372;28;20149;-83
2023/10/04 01:30:40;;;;;;;10.73;6.43;;;13.40;94.80;;;;;;5052404;28;20017;-82
2023/10/04 01:33:10;;;;;;;11.27;7.53;;;13.30;94.80;;;;;;5040967;28;20378;-84
2023/10/04 01:35:37;;;;;;;13.10;8.85;;;13.30;94.90;;;;;;5054502;28;20114;-82
2023/10/04 01:38:06;;;;;;;12.48;6.78;;;13.30;94.90;;;;;;5064840;28;20027;-82
2023/10/04 01:40:34;;;;;;;11.35;6.75;;;13.30;94.90;;;;;;5052693;28;20402;-84
2023/10/04 01:43:00;;;;;;;12.80;8.63;;;13.30;95.00;;;;;;5048613;28;20036;-83
2023/10/04 01:45:26;;;;;;;14.57;7.63;;;13.40;95.10;;;;;;5052120;28;20553;-84
2023/10/04 01:47:52;;;;;;;14.45;8.00;;;13.40;95.10;;;;;;5052411;28;20057;-83
2023/10/04 01:50:18;;;;;;;12.57;7.68;;;13.30;95.10;;;;;;5052448;28;20107;-82
2023/10/04 01:52:48;;;;;;;16.50;8.70;;;13.30;95.20;;;;;;5056302;28;20009;-82
2023/10/04 01:55:16;;;;;;;10.82;7.63;;;13.30;95.20;;;;;;5064350;28;20046;-83
2023/10/04 01:57:43;;;;;;;15.68;8.10;;;13.30;95.30;;;;;;5053606;28;20017;-83
2023/10/04 02:00:10;;;;;;;14.73;8.32;;;13.30;95.30;;;;;;5045382;28;20494;-82
2023/10/04 02:02:39;;;;;;;14.45;8.20;;;13.30;95.40;;;;;;5065655;28;20035;-83
2023/10/04 02:05:09;;;;;;;11.35;7.63;;;13.30;95.40;;;;;;5052915;28;20414;-82
2023/10/04 02:07:38;;;;;;;11.63;7.07;;;13.30;95.40;;;;;;5034425;28;20116;-82
2023/10/04 02:10:13;;;;;;;14.27;7.53;;;13.30;95.40;;;;;;5034464;28;20454;-81
2023/10/04 02:12:41;;;;;;;10.60;6.93;;;13.30;95.40;;;;;;5052446;28;20486;-83
2023/10/04 02:15:09;;;;;;;11.40;7.53;;;13.30;95.30;;;;;;5050336;28;20036;-82
2023/10/04 02:17:35;;;;;;;15.70;8.10;;;13.30;95.30;;;;;;5051792;28;20029;-82
2023/10/04 02:20:03;;;;;;;16.58;8.40;;;13.30;95.30;;;;;;5051851;28;20104;-82
2023/10/04 02:22:31;;;;;;;14.20;7.25;;;13.30;95.30;;;;;;5051406;28;20025;-83
2023/10/04 02:24:57;;;;;;;13.57;7.43;;;13.30;95.30;;;;;;5052694;28;20021;-83
2023/10/04 02:27:24;;;;;;;15.57;7.88;;;13.30;95.40;;;;;;5064753;28;20031;-83
2023/10/04 02:29:50;;;;;;;11.20;7.03;;;13.30;95.40;;;;;;5050424;28;20078;-83
2023/10/04 02:32:16;;;;;;;13.85;7.13;;;13.30;95.40;;;;;;5051990;28;20029;-83
2023/10/04 02:34:42;;;;;;;12.98;6.20;;;13.30;95.40;;;;;;5052363;28;20037;-82
2023/10/04 02:37:09;;;;;;;11.80;6.32;;;13.30;95.30;;;;;;5052827;28;20068;-82
2023/10/04 02:39:37;;;;;;;9.63;6.30;;;13.20;95.30;;;;;;5066685;28;20086;-82
2023/10/04 02:42:12;;;;;;;10.80;7.75;;;13.30;95.40;;;;;;5063445;28;20041;-82
2023/10/04 02:44:38;;;;;;;8.90;6.18;;;13.20;95.40;;;;;;5044649;28;20363;-81
2023/10/04 02:47:08;;;;;;;10.75;6.68;;;13.20;95.40;;;;;;5055662;28;20036;-82
2023/10/04 02:49:37;;;;;;;11.02;6.10;;;13.20;95.50;;;;;;5057314;28;20059;-82
2023/10/04 02:52:06;;;;;;;11.10;6.25;;;13.20;95.50;;;;;;5034557;28;20017;-85
2023/10/04 02:54:32;;;;;;;15.55;7.47;;;13.20;95.50;;;;;;5034612;28;20089;-84
2023/10/04 02:56:59;;;;;;;12.23;6.80;;;13.20;95.50;;;;;;5045511;28;20068;-85
2023/10/04 02:59:25;;;;;;;9.90;6.40;;;13.20;95.50;;;;;;5067098;28;20426;-85
2023/10/04 03:01:51;;;;;;;12.63;6.75;;;13.20;95.40;;;;;;5022662;28;20044;-84
2023/10/04 03:04:19;;;;;;;13.60;7.27;;;13.20;95.50;;;;;;5051881;28;20043;-85
2023/10/04 03:06:46;;;;;;;18.55;7.65;;;13.20;95.40;;;;;;5052101;28;20024;-86
2023/10/04 03:09:12;;;;;;;13.20;7.90;;;13.20;95.40;;;;;;5030454;28;20121;-85
2023/10/04 03:11:42;;;;;;;12.15;6.53;;;13.10;95.40;;;;;;5032682;28;20111;-85
2023/10/04 03:14:11;;;;;;;12.50;7.47;;;13.20;95.40;;;;;;5034694;28;20056;-86
2023/10/04 03:16:40;;;;;;;12.98;8.27;;;13.10;95.40;;;;;;5053182;28;20035;-84
2023/10/04 03:19:07;;;;;;;12.93;6.43;;;13.20;95.40;;;;;;5045504;28;20083;-85
2023/10/04 03:21:33;;;;;;;14.52;7.50;;;13.10;95.30;;;;;;5034376;28;20495;-84
2023/10/04 03:24:03;;;;;;;12.68;8.27;;;13.10;95.30;;;;;;5054713;28;20072;-86
2023/10/04 03:26:29;;;;;;;11.80;7.88;;;13.10;95.20;;;;;;5055481;28;20021;-85
2023/10/04 03:28:55;;;;;;;12.00;7.43;;;13.10;95.20;;;;;;5036934;28;20536;-84
2023/10/04 03:31:22;;;;;;;12.13;7.75;;;13.10;95.30;;;;;;5036706;28;20393;-85
2023/10/04 03:33:49;;;;;;;18.35;7.75;;;13.10;95.20;;;;;;5037750;28;20025;-85
2023/10/04 03:36:18;;;;;;;11.85;7.63;;;13.10;95.30;;;;;;5058115;28;20029;-83
2023/10/04 03:38:45;;;;;;;19.77;7.88;;;13.20;95.30;;;;;;5058361;28;20025;-85
2023/10/04 03:41:12;;;;;;;12.48;7.43;;;13.20;95.20;;;;;;5027574;28;20037;-83
2023/10/04 03:43:40;;;;;;;10.18;7.10;;;13.20;95.20;;;;;;5059048;28;20509;-85
2023/10/04 03:46:17;;;;;;;14.15;6.75;;;13.20;95.20;;;;;;5029790;28;20029;-83
2023/10/04 03:48:47;;;;;;;12.00;7.57;;;13.10;95.20;;;;;;5039953;28;20035;-85
2023/10/04 03:51:15;;;;;;;14.13;7.15;;;13.20;95.20;;;;;;5036453;28;20041;-83
2023/10/04 03:53:43;;;;;;;;;;;13.20;95.20;;;;;;5054613;28;20430;-85
2023/10/04 03:56:12;;;;;;;16.73;8.60;;;13.20;95.10;;;;;;5054170;28;19905;-85
2023/10/04 03:58:38;;;;;;;12.90;7.60;;;13.20;95.10;;;;;;5048465;28;20017;-85
2023/10/04 04:01:05;;;;;;;16.20;8.20;;;13.20;95.10;;;;;;5049907;28;20037;-83
2023/10/04 04:03:31;;;;;;;16.77;7.72;;;13.20;95.00;;;;;;5060549;28;20111;-85
2023/10/04 04:05:57;;;;;;;14.13;9.10;;;13.30;94.90;;;;;;5060488;28;20502;-85
2023/10/04 04:08:22;;;;;;;15.27;7.82;;;13.30;94.80;;;;;;5030296;28;20060;-83
2023/10/04 04:10:50;;;;;;;13.93;7.88;;;13.30;94.80;;;;;;5028710;28;20536;-82
2023/10/04 04:13:15;;;;;;;14.55;7.10;;;13.40;94.90;;;;;;5069454;28;20021;-85
2023/10/04 04:15:41;;;;;;;12.25;7.35;;;13.40;94.50;;;;;;5067837;28;20025;-84
2023/10/04 04:18:16;;;;;;;11.95;7.00;;;13.40;94.40;;;;;;5041356;28;20032;-85
2023/10/04 04:20:41;;;;;;;13.52;7.95;;;13.50;94.30;;;;;;5035245;28;20033;-84
2023/10/04 04:23:12;;;;;;;16.63;8.27;;;13.50;94.20;;;;;;5054813;28;20486;-84
2023/10/04 04:25:38;;;;;;;11.38;7.25;;;13.50;94.10;;;;;;5052466;28;20547;-84
2023/10/04 04:28:05;;;;;;;16.05;8.10;;;13.60;94.00;;;;;;5037844;28;20021;-85
2023/10/04 04:30:31;;;;;;;13.38;7.38;;;13.60;93.90;;;;;;5068683;28;20534;-84
2023/10/04 04:32:57;;;;;;;13.30;8.15;;;13.60;93.80;;;;;;5054144;28;20021;-84
2023/10/04 04:38:14;;;;;;;12.00;7.05;;;13.70;93.60;;;;;;5053932;28;20526;-84
2023/10/04 04:40:46;;;;;;;14.93;8.00;;;13.70;93.40;;;;;;5034096;28;20033;-83
2023/10/04 04:45:52;;;;;;;15.25;7.28;;;13.70;93.40;;;;;;5055288;28;20022;-81
2023/10/04 04:48:23;;;;;;;12.38;7.88;;;13.70;93.10;;;;;;5070613;28;20017;-82
2023/10/04 04:50:51;;;;;;;14.18;7.85;;;13.80;93.00;;;;;;5051885;28;20040;-82
2023/10/04 04:53:18;;;;;;;11.98;7.57;;;13.80;92.90;;;;;;5059926;28;20032;-82
2023/10/04 04:55:45;;;;;;;13.52;7.22;;;13.80;92.70;;;;;;5051698;28;20044;-83
2023/10/04 04:58:14;;;;;;;13.52;7.47;;;13.90;92.70;;;;;;5051814;28;20096;-82
2023/10/04 05:00:43;;;;;;;13.35;8.32;;;13.90;92.60;;;;;;5052101;28;20124;-83
2023/10/04 05:03:11;;;;;;;17.77;8.77;;;14.00;92.50;;;;;;5049930;28;20020;-83
2023/10/04 05:05:39;;;;;;;11.23;7.30;;;14.00;92.40;;;;;;5050877;28;20040;-83
2023/10/04 05:08:05;;;;;;;20.23;7.95;;;14.10;92.30;;;;;;5032387;28;20030;-84
2023/10/04 05:10:38;;;;;;;15.13;8.32;;;14.10;92.30;;;;;;5047509;28;20029;-83
2023/10/04 05:13:07;;;;;;;17.20;8.40;;;14.20;92.30;;;;;;5041395;28;20021;-82
2023/10/04 05:15:35;;;;;;;16.25;7.80;;;14.20;92.10;;;;;;5026153;28;20029;-83
2023/10/04 05:18:11;;;;;;;15.98;8.00;;;14.30;92.00;;;;;;5043784;28;20029;-83
2023/10/04 05:20:38;;;;;;;12.98;6.82;;;14.40;91.90;;;;;;5054841;28;20337;-83
2023/10/04 05:23:05;;;;;;;11.23;7.28;;;14.40;91.50;;;;;;5042287;28;20403;-85
2023/10/04 05:25:31;;;;;;;13.57;7.13;;;14.40;91.40;;;;;;5048736;28;20108;-83
2023/10/04 05:28:09;;;;;;;13.97;7.80;;;14.50;91.40;;;;;;5052869;28;20541;-82
2023/10/04 05:30:38;;;;;;;13.48;7.13;;;14.50;91.20;;;;;;5051667;28;20736;-82
2023/10/04 05:33:06;;;;;;;12.73;8.30;;;14.50;91.10;;;;;;5052331;28;20029;-83
2023/10/04 05:35:34;;;;;;;10.23;6.40;;;14.60;91.00;;;;;;5052890;28;20087;-82
2023/10/04 05:38:03;;;;;;;15.30;7.80;;;14.70;90.80;;;;;;5054696;28;20569;-82
2023/10/04 05:40:30;;;;;;;13.93;7.18;;;14.70;90.90;;;;;;5034891;28;20444;-83
2023/10/04 05:42:57;;;;;;;15.18;8.40;;;14.90;90.60;;;;;;5051821;28;20047;-85
2023/10/04 05:45:25;;;;;;;17.23;8.23;;;15.00;90.40;;;;;;5053133;28;20033;-86
2023/10/04 05:47:50;;;;;;;17.73;8.38;;;15.10;90.10;;;;;;5050363;28;20020;-85
2023/10/04 05:50:18;;;;;;;11.73;6.72;;;15.20;89.80;;;;;;5050583;28;20029;-85
2023/10/04 05:52:48;;;;;;;17.85;8.82;;;15.40;88.70;;;;;;5036252;28;20025;-84
2023/10/04 05:55:16;;;;;;;14.20;8.93;;;15.60;88.00;;;;;;5049192;28;20506;-82
2023/10/04 05:57:45;;;;;;;12.77;7.72;;;15.70;87.00;;;;;;5041388;28;20419;-85
2023/10/04 06:00:23;;;;;;;14.50;7.63;;;15.90;86.30;;;;;;5035577;28;20028;-83
2023/10/04 06:03:06;;;;;;;17.73;9.38;;;15.90;85.60;;;;;;5049537;28;20396;-88
2023/10/04 06:05:38;;;;;;;14.88;7.45;;;15.90;85.80;;;;;;5046840;28;20025;-84
2023/10/04 06:08:06;;;;;;;13.13;7.40;;;16.10;85.30;;;;;;5049728;28;20028;-86
2023/10/04 06:10:33;;;;;;;12.80;7.95;;;16.10;84.50;;;;;;5033248;28;20028;-84
2023/10/04 06:12:59;;;;;;;11.53;7.23;;;16.20;84.50;;;;;;5049025;28;20064;-86
2023/10/04 06:15:25;;;;;;;15.63;7.75;;;16.20;84.00;;;;;;5049651;28;20025;-87
2023/10/04 06:17:52;;;;;;;15.23;8.32;;;16.10;84.00;;;;;;5054429;28;20414;-84
2023/10/04 06:20:28;;;;;;;16.00;6.90;;;16.20;83.70;;;;;;5043961;28;20029;-86
2023/10/04 06:22:57;;;;;;;14.45;7.82;;;16.20;83.10;;;;;;5032582;28;20132;-85
2023/10/04 06:25:24;;;;;;;13.38;7.68;;;16.20;83.30;;;;;;5049370;28;20119;-86
2023/10/04 06:27:56;;;;;;;12.65;7.75;;;16.30;83.20;;;;;;5035090;28;20044;-84
2023/10/04 06:30:24;;;;;;;13.57;7.72;;;16.40;83.00;;;;;;5036116;28;20512;-84
2023/10/04 06:32:56;;;;;;;17.48;7.65;;;16.50;82.80;;;;;;5054421;28;20017;-87
2023/10/04 06:35:24;;;;;;;14.05;7.88;;;16.60;82.10;;;;;;5064577;28;20049;-87
2023/10/04 06:37:56;;;;;;;14.63;8.40;;;16.70;81.90;;;;;;5048811;28;20359;-84
2023/10/04 06:40:24;;;;;;;15.25;8.20;;;16.70;81.10;;;;;;5053545;28;20025;-85
2023/10/04 06:42:51;;;;;;;14.27;7.97;;;16.60;80.80;;;;;;5066229;28;20040;-84
2023/10/04 06:45:22;;;;;;;14.93;8.02;;;16.60;81.30;;;;;;5052051;28;20248;-85
2023/10/04 06:47:49;;;;;;;15.27;8.23;;;16.60;81.10;;;;;;5051765;28;20083;-84
2023/10/04 06:50:18;;;;;;;;;;;16.50;80.90;;;;;;5055202;28;20071;-84
2023/10/04 06:52:48;;;;;;;14.13;7.15;;;16.40;81.60;;;;;;5056255;28;20292;-86
2023/10/04 06:55:15;;;;;;;14.85;9.00;;;16.50;81.10;;;;;;5054902;28;20078;-84
2023/10/04 06:57:42;;;;;;;13.55;7.88;;;16.60;81.40;;;;;;5069797;28;20162;-85
2023/10/04 07:00:16;;;;;;;14.13;7.82;;;16.60;80.50;;;;;;5056244;28;20021;-86
2023/10/04 07:02:46;;;;;;;11.88;7.60;;;16.60;80.70;;;;;;5037318;28;20124;-85
2023/10/04 07:05:14;;;;;;;13.90;7.13;;;16.70;80.70;;;;;;5055276;28;20114;-86
2023/10/04 07:07:42;;;;;;;18.58;9.00;;;16.70;80.20;;;;;;5059464;28;20040;-84
2023/10/04 07:10:08;;;;;;;19.85;8.38;;;16.70;80.30;;;;;;5055537;28;20111;-86
2023/10/04 07:12:35;;;;;;;12.80;6.90;;;16.70;80.00;;;;;;5037154;28;20115;-86
2023/10/04 07:15:04;;;;;;;14.32;7.75;;;16.70;80.10;;;;;;5055329;28;20159;-85
2023/10/04 07:17:30;;;;;;;14.25;7.60;;;16.70;79.80;;;;;;5037010;28;20490;-85
2023/10/04 07:19:59;;;;;;;20.10;7.32;;;16.80;79.50;;;;;;5056870;28;20036;-86
2023/10/04 07:22:29;;;;;;;16.13;8.13;;;16.80;79.10;;;;;;5056985;28;20041;-84
2023/10/04 07:24:57;;;;;;;13.30;7.57;;;16.80;79.30;;;;;;5067762;28;20021;-85
2023/10/04 07:27:23;;;;;;;18.73;8.18;;;16.80;79.50;;;;;;5056000;28;20092;-86
2023/10/04 07:29:50;;;;;;;18.25;8.75;;;16.90;79.30;;;;;;5047524;28;20017;-85
2023/10/04 07:32:16;;;;;;;15.83;8.73;;;17.00;79.10;;;;;;5058500;28;20032;-85
2023/10/04 07:34:42;;;;;;;15.02;7.70;;;17.00;78.60;;;;;;5055386;28;20285;-85
2023/10/04 07:37:08;;;;;;;15.90;6.63;;;17.00;79.30;;;;;;5055655;28;20029;-85
2023/10/04 07:39:35;;;;;;;16.88;8.07;;;17.10;78.30;;;;;;5037719;28;20031;-85
2023/10/04 07:42:02;;;;;;;15.85;8.35;;;17.20;78.50;;;;;;5056834;28;20060;-84
2023/10/04 07:44:30;;;;;;;18.75;9.05;;;17.50;77.50;;;;;;5054867;28;20427;-86
2023/10/04 07:46:59;;;;;;;15.02;8.98;;;17.50;77.00;;;;;;5055278;28;20021;-84
2023/10/04 07:49:26;;;;;;;15.80;7.65;;;17.60;76.50;;;;;;5054497;28;20017;-86
2023/10/04 07:51:52;;;;;;;13.52;8.40;;;17.70;76.90;;;;;;5055313;28;20155;-86
2023/10/04 07:54:19;;;;;;;16.08;9.07;;;17.70;75.90;;;;;;5041213;28;20079;-84
2023/10/04 07:56:46;;;;;;;18.77;7.50;;;17.80;75.70;;;;;;5036890;28;20486;-85
2023/10/04 07:59:12;;;;;;;14.70;8.07;;;17.90;75.60;;;;;;5054645;28;20106;-84
2023/10/04 08:01:41;;;;;;;17.45;8.20;;;18.10;75.20;;;;;;5054694;28;20386;-85
2023/10/04 08:04:11;;;;;;;13.35;7.55;;;18.10;74.80;;;;;;5057026;28;20036;-84
2023/10/04 08:06:40;;;;;;;15.93;7.90;;;18.10;74.30;;;;;;5060740;28;20377;-85
2023/10/04 08:09:07;;;;;;;14.80;9.20;;;17.90;74.50;;;;;;5042093;28;20404;-85
2023/10/04 08:11:35;;;;;;;28.58;11.23;;;17.80;75.00;;;;;;5056819;28;20020;-88
2023/10/04 08:14:07;;;;;;;15.55;8.20;;;17.80;75.20;;;;;;5060249;28;20024;-85
2023/10/04 08:16:33;;;;;;;18.85;9.23;;;17.70;75.40;;;;;;5045380;28;20044;-84
2023/10/04 08:19:01;;;;;;;17.48;9.02;;;17.70;75.50;;;;;;5063078;28;20110;-84
2023/10/04 08:21:28;;;;;;;19.33;9.77;;;17.70;75.30;;;;;;5060056;28;20130;-85
2023/10/04 08:23:55;;;;;;;15.00;8.93;;;17.70;75.60;;;;;;5055914;28;20017;-86
2023/10/04 08:26:22;;;;;;;11.85;7.88;;;17.90;75.10;;;;;;5069087;28;20009;-85
2023/10/04 08:28:49;;;;;;;16.55;9.23;;;17.90;74.80;;;;;;5040286;28;20088;-85
2023/10/04 08:31:18;;;;;;;17.40;8.57;;;18.00;74.40;;;;;;5055065;28;20040;-85
2023/10/04 08:33:44;;;;;;;20.35;9.38;;;18.10;74.10;;;;;;5054938;28;20017;-83
2023/10/04 08:36:17;;;;;;;16.25;7.90;;;18.10;74.00;;;;;;5054605;28;20032;-87
2023/10/04 08:38:45;;;;;;;18.83;9.25;;;18.20;73.80;;;;;;5054023;28;20063;-86
2023/10/04 08:41:11;;;;;;;12.85;8.55;;;18.20;73.70;;;;;;5056299;28;20068;-85
2023/10/04 08:43:38;;;;;;;16.65;8.68;;;18.40;73.50;;;;;;5056984;28;20013;-85
2023/10/04 08:46:07;;;;;;;20.17;8.93;;;18.70;72.60;;;;;;5045420;28;20036;-87
2023/10/04 08:48:34;;;;;;;15.13;7.57;;;19.10;71.30;;;;;;5065216;28;20041;-85
2023/10/04 08:51:44;;;;;;;15.10;7.82;;;19.70;70.20;;;;;;5053112;28;20060;-84
2023/10/04 08:54:22;;;;;;;13.60;8.32;;;20.10;68.40;;;;;;5011807;28;20128;-87
2023/10/04 08:57:05;;;;;;;16.92;7.85;;;20.00;68.20;;;;;;4996665;28;20041;-85
2023/10/04 08:59:33;;;;;;;15.15;8.95;;;20.00;68.10;;;;;;5018454;28;20051;-84
2023/10/04 09:02:07;;;;;;;15.95;7.55;;;20.40;67.70;;;;;;5013245;28;20029;-84
2023/10/04 09:04:35;;;;;;;12.07;7.40;;;21.00;66.10;;;;;;5013368;28;20042;-84
2023/10/04 09:07:02;;;;;;;14.07;6.55;;;21.80;63.60;;;;;;5011632;28;20025;-84
2023/10/04 09:09:32;;;;;;;16.52;8.65;;;22.20;62.20;;;;;;5011453;28;20069;-87
2023/10/04 09:11:58;;;;;;;15.40;7.57;;;22.40;61.30;;;;;;4994075;28;20024;-87
2023/10/04 09:14:25;;;;;;;20.23;8.38;;;22.30;60.80;;;;;;5011268;28;20038;-85
2023/10/04 09:17:13;;;;;;;17.70;8.20;;;22.50;60.80;;;;;;5010969;28;20018;-85
2023/10/04 09:19:38;;;;;;;18.05;8.18;;;22.70;60.40;;;;;;5011104;28;20033;-86
2023/10/04 09:22:06;;;;;;;24.05;9.35;;;23.00;59.70;;;;;;5015865;28;20056;-83
2023/10/04 09:24:52;;;;;;;13.68;7.88;;;23.00;58.60;;;;;;5029991;28;20482;-85
2023/10/04 09:27:18;;;;;;;14.70;9.47;;;22.40;59.40;;;;;;5039367;28;20028;-85
2023/10/04 09:29:45;;;;;;;14.07;7.95;;;21.80;61.00;;;;;;5057482;28;20270;-87
2023/10/04 09:32:10;;;;;;;21.63;9.32;;;21.70;61.20;;;;;;5060440;28;20032;-84
2023/10/04 09:34:36;;;;;;;18.67;9.18;;;22.10;61.30;;;;;;5066945;28;20029;-83
2023/10/04 09:37:18;;;;;;;22.70;10.02;;;22.90;59.80;;;;;;5068873;28;20017;-85
2023/10/04 09:39:44;;;;;;;22.15;9.80;;;;;;;;;;5047775;28;20024;-85
2023/10/04 09:42:14;;;;;;;19.55;10.43;;;24.20;55.90;;;;;;5055669;28;20040;-87
2023/10/04 09:44:40;;;;;;;20.70;9.57;;;24.60;56.10;;;;;;5053306;28;20013;-86
2023/10/04 09:47:07;;;;;;;19.23;9.05;;;25.10;54.70;;;;;;5034958;28;20043;-86
2023/10/04 09:49:35;;;;;;;15.73;9.02;;;25.50;54.10;;;;;;5053016;28;20021;-87
2023/10/04 09:52:12;;;;;;;17.48;8.48;;;25.70;53.50;;;;;;5042462;28;20367;-85
2023/10/04 09:54:39;;;;;;;11.65;8.63;;;25.60;53.00;;;;;;5065055;28;20017;-87
2023/10/04 09:57:12;;;;;;;14.00;8.63;;;25.50;53.10;;;;;;5052513;28;20033;-86
2023/10/04 09:59:38;;;;;;;17.40;8.82;;;25.60;52.80;;;;;;5052282;28;20035;-86
2023/10/04 10:02:09;;;;;;;14.35;8.57;;;25.40;53.00;;;;;;5034825;28;20033;-86
2023/10/04 10:04:42;;;;;;;13.77;8.45;;;25.40;52.90;;;;;;5052478;28;20029;-85
2023/10/04 10:07:16;;;;;;;17.95;8.75;;;25.70;52.80;;;;;;5052846;28;20382;-86
2023/10/04 10:09:48;;;;;;;19.55;9.85;;;25.80;52.10;;;;;;5056051;28;20017;-86
2023/10/04 10:12:15;;;;;;;18.08;9.02;;;25.50;52.50;;;;;;5011518;28;20038;-87
2023/10/04 10:14:45;;;;;;;14.43;8.82;;;24.60;53.50;;;;;;5019003;28;20030;-86
2023/10/04 10:17:17;;;;;;;18.77;9.63;;;23.80;55.30;;;;;;5014920;28;20034;-86
2023/10/04 10:19:47;;;;;;;12.25;7.32;;;23.30;56.30;;;;;;5017974;28;20474;-86
2023/10/04 10:22:19;;;;;;;23.15;10.23;;;22.80;57.00;;;;;;5022036;28;20093;-86
2023/10/04 10:25:14;;;;;;;16.17;9.50;;;22.40;58.60;;;;;;5015298;28;20034;-86
2023/10/04 10:27:41;;;;;;;15.43;8.17;;;22.30;58.70;;;;;;5008100;28;20492;-87
2023/10/04 10:30:16;;;;;;;13.50;8.43;;;22.10;59.00;;;;;;5015470;28;20109;-85
2023/10/04 10:32:54;;;;;;;19.25;9.30;;;21.90;59.50;;;;;;5016120;28;20034;-87
2023/10/04 10:35:48;;;;;;;20.80;9.82;;;21.50;60.60;;;;;;5027383;28;20045;-86
2023/10/04 10:38:31;;;;;;;17.52;9.43;;;21.10;61.30;;;;;;5008519;28;20409;-86
2023/10/04 10:40:57;;;;;;;23.50;10.40;;;20.80;62.40;;;;;;5013839;28;20507;-85
2023/10/04 10:43:22;;;;;;;14.82;9.52;;;20.70;63.10;;;;;;5036718;28;20036;-86
2023/10/04 10:45:48;;;;;;;20.08;10.15;;;20.50;63.70;;;;;;5055964;28;20382;-87
2023/10/04 10:48:14;;;;;;;18.27;9.90;;;20.30;64.30;;;;;;5055843;28;20025;-86
2023/10/04 10:50:41;;;;;;;18.95;9.15;;;20.20;64.90;;;;;;5032609;28;20036;-86
2023/10/04 10:53:10;;;;;;;18.75;9.88;;;20.20;65.20;;;;;;5038568;28;20021;-87
2023/10/04 10:55:38;;;;;;;16.13;9.95;;;20.10;65.50;;;;;;5040244;28;20517;-84
2023/10/04 10:58:06;;;;;;;21.77;10.10;;;19.90;65.80;;;;;;5057058;28;20501;-83
2023/10/04 11:00:32;;;;;;;26.88;10.68;;;19.90;66.20;;;;;;5058982;28;20033;-86
2023/10/04 11:02:59;;;;;;;19.30;8.98;;;19.80;66.60;;;;;;5058874;28;20478;-85
2023/10/04 11:05:26;;;;;;;19.80;8.98;;;19.70;67.00;;;;;;5058219;28;20051;-85
2023/10/04 11:07:54;;;;;;;18.73;9.40;;;19.60;67.30;;;;;;5056110;28;20104;-85
2023/10/04 11:10:23;;;;;;;23.77;10.05;;;19.50;67.60;;;;;;5057601;28;20100;-85
2023/10/04 11:12:55;;;;;;;23.73;11.10;;;19.40;68.20;;;;;;5058173;28;20040;-85
2023/10/04 11:15:23;;;;;;;24.88;10.68;;;19.50;68.50;;;;;;5057390;28;20032;-86
2023/10/04 11:17:50;;;;;;;17.40;8.70;;;19.40;68.60;;;;;;5054952;28;20394;-86
2023/10/04 11:20:20;;;;;;;;;;;19.30;68.80;;;;;;5055363;28;20467;-86
2023/10/04 11:22:48;;;;;;;20.10;9.80;;;19.30;68.60;;;;;;5054965;28;19905;-85
2023/10/04 11:25:16;;;;;;;20.65;11.48;;;19.20;69.30;;;;;;5055225;28;20055;-85
2023/10/04 11:27:44;;;;;;;19.70;9.45;;;19.20;69.60;;;;;;5055429;28;20017;-86
2023/10/04 11:30:13;;;;;;;19.70;7.93;;;19.10;69.60;;;;;;5054344;28;20028;-86
2023/10/04 11:32:41;;;;;;;15.82;8.48;;;19.10;69.90;;;;;;5033467;28;20025;-85
2023/10/04 11:35:08;;;;;;;22.52;10.10;;;19.00;70.50;;;;;;5046293;28;20168;-86
2023/10/04 11:37:43;;;;;;;19.30;10.68;;;18.90;70.90;;;;;;5055653;28;20029;-84
2023/10/04 11:40:14;;;;;;;23.50;9.70;;;18.90;71.20;;;;;;5057336;28;20393;-84
2023/10/04 11:42:45;;;;;;;16.23;9.15;;;18.90;71.40;;;;;;5055631;28;20083;-86
2023/10/04 11:45:23;;;;;;;28.98;9.55;;;18.80;71.60;;;;;;5034032;28;20053;-86
2023/10/04 11:48:05;;;;;;;17.88;9.68;;;18.80;71.90;;;;;;5048845;28;20031;-84
2023/10/04 11:50:51;;;;;;;20.75;9.25;;;18.80;72.50;;;;;;5055808;28;20048;-86
2023/10/04 11:53:45;;;;;;;16.98;7.90;;;18.60;72.80;;;;;;5025453;28;20032;-85
2023/10/04 11:56:11;;;;;;;25.48;10.10;;;18.50;73.80;;;;;;5056212;28;20013;-85
2023/10/04 11:58:50;;;;;;;18.25;10.02;;;18.20;74.60;;;;;;5056126;28;20025;-86
2023/10/04 12:01:22;;;;;;;16.95;10.27;;;18.20;75.00;;;;;;5038135;28;20025;-83
2023/10/04 12:03:50;;;;;;;15.30;9.25;;;18.10;75.80;;;;;;5041599;28;20020;-84
2023/10/04 12:06:24;;;;;;;17.42;8.35;;;17.90;77.50;;;;;;5070952;28;20028;-84
2023/10/04 12:08:50;;;;;;;20.42;9.70;;;17.50;80.30;;;;;;5073279;28;20021;-85
2023/10/04 12:11:22;;;;;;;19.77;10.48;;;17.10;83.40;;;;;;5068716;28;20028;-87
2023/10/04 12:13:49;;;;;;;18.23;9.52;;;16.70;84.80;;;;;;5036986;28;20021;-86
2023/10/04 12:16:17;;;;;;;11.60;9.20;;;16.60;86.80;;;;;;5055264;28;20061;-85
2023/10/04 12:18:43;;;;;;;;;;;16.40;88.60;;;;;;5055300;28;20068;-86
2023/10/04 12:21:09;;;;;;;19.05;9.93;;;16.20;87.90;;;;;;5054625;28;20027;-86
2023/10/04 12:23:35;;;;;;;16.42;9.90;;;;;;;;;;5054487;28;20025;-85
2023/10/04 12:26:01;;;;;;;16.48;9.23;;;16.20;90.20;;;;;;5054035;28;20025;-85
2023/10/04 12:28:29;;;;;;;17.08;9.55;;;16.30;90.50;;;;;;5053623;28;20082;-86
2023/10/04 12:31:07;;;;;;;20.13;9.95;;;16.40;90.70;;;;;;5053815;28;20356;-86
2023/10/04 12:33:36;;;;;;;16.30;8.85;;;16.40;90.50;;;;;;5055167;28;20017;-85
2023/10/04 12:36:04;;;;;;;13.82;8.68;;;16.50;90.60;;;;;;5057324;28;20195;-85
2023/10/04 12:38:30;;;;;;;17.30;9.20;;;16.60;90.50;;;;;;5054541;28;20382;-86
2023/10/04 12:40:56;;;;;;;13.30;7.03;;;16.70;90.40;;;;;;5053184;28;20028;-86
2023/10/04 12:43:24;;;;;;;13.82;8.35;;;16.70;90.00;;;;;;5053576;28;20112;-85
2023/10/04 12:45:57;;;;;;;14.80;7.10;;;16.60;89.90;;;;;;5054582;28;20021;-85
2023/10/04 12:48:23;;;;;;;10.30;6.28;;;16.60;89.60;;;;;;5063441;28;20028;-85
2023/10/04 12:51:00;;;;;;;16.40;9.05;;;16.60;89.60;;;;;;5054244;28;20032;-87
2023/10/04 12:53:27;;;;;;;11.25;7.57;;;16.60;89.60;;;;;;5054114;28;20025;-86